createdAt,value
2019-05-10T00:03:33.136Z,996
2019-05-10T00:08:43.151Z,996
2019-05-10T00:18:48.463Z,996
2019-05-10T00:23:53.425Z,996
2019-05-10T00:28:58.395Z,996
2019-05-10T00:34:08.399Z,996
2019-05-10T00:39:19.993Z,996
2019-05-10T00:44:23.326Z,996
2019-05-10T00:49:28.352Z,996
2019-05-10T00:54:33.355Z,996
2019-05-10T00:59:38.479Z,996
2019-05-10T01:04:48.352Z,996
2019-05-10T01:09:58.295Z,996
2019-05-10T01:15:03.339Z,996
2019-05-10T01:20:08.386Z,996
2019-05-10T01:25:13.598Z,996
2019-05-10T01:30:18.665Z,996
2019-05-10T01:35:23.505Z,996
2019-05-10T01:40:33.323Z,996
2019-05-10T01:45:43.372Z,996
2019-05-10T01:50:48.340Z,996
2019-05-10T02:00:48.455Z,996
2019-05-10T02:05:53.474Z,996
2019-05-10T02:10:58.490Z,996
2019-05-10T02:16:08.474Z,996
2019-05-10T02:21:18.423Z,996
2019-05-10T02:26:23.451Z,996
2019-05-10T02:31:28.675Z,996
2019-05-10T02:36:33.486Z,996
2019-05-10T02:41:38.446Z,996
2019-05-10T02:46:48.500Z,997
2019-05-10T02:51:58.461Z,996
2019-05-10T02:57:03.468Z,997
2019-05-10T03:02:08.479Z,997
2019-05-10T03:07:13.424Z,997
2019-05-10T03:12:18.421Z,997
2019-05-10T03:17:23.420Z,997
2019-05-10T03:22:33.560Z,997
2019-05-10T03:27:43.719Z,997
2019-05-10T03:32:48.529Z,997
2019-05-10T03:37:53.382Z,997
2019-05-10T03:42:58.460Z,997
2019-05-10T03:48:08.429Z,997
2019-05-10T03:53:18.395Z,997
2019-05-10T03:58:23.395Z,997
2019-05-10T04:03:28.388Z,997
2019-05-10T04:08:33.457Z,997
2019-05-10T04:13:38.427Z,997
2019-05-10T04:18:48.434Z,997
2019-05-10T04:23:58.487Z,997
2019-05-10T04:29:03.415Z,997
2019-05-10T04:34:08.491Z,998
2019-05-10T04:39:13.496Z,998
2019-05-10T04:44:18.370Z,998
2019-05-10T04:49:23.415Z,998
2019-05-10T04:54:33.378Z,998
2019-05-10T04:59:43.351Z,998
2019-05-10T05:04:48.498Z,998
2019-05-10T05:09:53.455Z,998
2019-05-10T05:19:53.525Z,998
2019-05-10T05:25:03.945Z,998
2019-05-10T05:30:03.634Z,998
2019-05-10T05:35:15.943Z,998
2019-05-10T05:40:23.604Z,998
2019-05-10T05:45:35.909Z,998
2019-05-10T05:50:33.523Z,998
2019-05-10T05:55:38.604Z,998
2019-05-10T06:00:47.150Z,998
2019-05-10T06:07:18.812Z,998
2019-05-10T06:11:18.502Z,998
2019-05-10T06:16:28.583Z,998
2019-05-10T06:21:38.505Z,998
2019-05-10T06:26:43.523Z,998
2019-05-10T06:31:48.504Z,998
2019-05-10T06:36:53.509Z,999
2019-05-10T06:41:58.806Z,999
2019-05-10T06:47:11.679Z,999
2019-05-10T06:53:33.769Z,999
2019-05-10T06:57:23.489Z,999
2019-05-10T07:02:32.968Z,999
2019-05-10T07:11:02.031Z,999
2019-05-10T07:12:39.357Z,999
2019-05-10T07:17:48.473Z,999
2019-05-10T07:23:07.871Z,999
2019-05-10T07:26:28.871Z,999
2019-05-10T07:28:03.516Z,999
2019-05-10T07:33:08.538Z,999
2019-05-10T07:38:13.417Z,999
2019-05-10T07:44:21.748Z,999
2019-05-10T07:53:25.489Z,999
2019-05-10T07:58:23.592Z,999
2019-05-10T08:03:30.293Z,999
2019-05-10T08:08:39.625Z,999
2019-05-10T08:13:49.060Z,999
2019-05-10T08:19:02.362Z,999
2019-05-10T08:25:07.990Z,1000
2019-05-10T08:32:35.281Z,1000
2019-05-10T08:34:08.576Z,1000
2019-05-10T08:39:18.584Z,1000
2019-05-10T08:44:28.659Z,1000
2019-05-10T08:54:38.728Z,1000
2019-05-10T08:59:43.573Z,1000
2019-05-10T09:04:53.121Z,1000
2019-05-10T09:09:53.928Z,1000
2019-05-10T09:16:17.930Z,1000
2019-05-10T09:21:25.910Z,1000
2019-05-10T09:26:32.716Z,1000
2019-05-10T09:30:23.672Z,1000
2019-05-10T09:35:28.617Z,1000
2019-05-10T09:40:33.686Z,1000
2019-05-10T09:45:43.704Z,1000
2019-05-10T09:52:18.955Z,1000
2019-05-10T09:56:03.687Z,1000
2019-05-10T10:02:19.272Z,1000
2019-05-10T10:06:11.830Z,1000
2019-05-10T10:11:18.994Z,1000
2019-05-10T10:16:23.608Z,1001
2019-05-10T10:21:39.312Z,1000
2019-05-10T10:26:38.552Z,1000
2019-05-10T10:32:52.877Z,1000
2019-05-10T10:41:43.768Z,1001
2019-05-10T10:46:48.785Z,1001
2019-05-10T10:51:53.825Z,1001
2019-05-10T10:57:03.782Z,1001
2019-05-10T11:03:18.213Z,1001
2019-05-10T11:07:18.755Z,1001
2019-05-10T11:12:24.612Z,1001
2019-05-10T11:17:31.152Z,1001
2019-05-10T11:22:33.772Z,1001
2019-05-10T11:28:56.055Z,1001
2019-05-10T11:32:53.753Z,1001
2019-05-10T11:38:01.597Z,1001
2019-05-10T11:43:03.799Z,1001
2019-05-10T11:48:11.304Z,1001
2019-05-10T11:53:17.922Z,1001
2019-05-10T11:59:41.759Z,1001
2019-05-10T12:03:33.825Z,1001
2019-05-10T12:08:42.364Z,1001
2019-05-10T12:13:43.862Z,1001
2019-05-10T12:28:51.438Z,1001
2019-05-10T12:33:53.992Z,1002
2019-05-10T12:39:04.028Z,1002
2019-05-10T12:44:14.038Z,1002
2019-05-10T12:49:21.679Z,1002
2019-05-10T12:59:19.093Z,1002
2019-05-10T13:07:40.640Z,1002
2019-05-10T13:10:50.100Z,1002
2019-05-10T13:14:52.316Z,1002
2019-05-10T13:15:44.444Z,1002
2019-05-10T13:23:18.777Z,1002
2019-05-10T13:24:54.205Z,1002
2019-05-10T13:29:59.142Z,1002
2019-05-10T13:35:04.168Z,1002
2019-05-10T13:40:09.181Z,1002
2019-05-10T13:45:39.485Z,1002
2019-05-10T13:46:39.400Z,1002
2019-05-10T13:50:44.178Z,1002
2019-05-10T13:55:54.131Z,1002
2019-05-10T14:04:40.289Z,1002
2019-05-10T14:06:09.124Z,1002
2019-05-10T14:11:14.155Z,1002
2019-05-10T14:16:23.040Z,1002
2019-05-10T14:21:24.071Z,1002
2019-05-10T14:26:34.074Z,1002
2019-05-10T14:31:44.077Z,1002
2019-05-10T14:36:49.132Z,1002
2019-05-10T14:41:54.099Z,1002
2019-05-10T14:46:59.098Z,1002
2019-05-10T14:52:04.148Z,1002
2019-05-10T14:57:14.076Z,1002
2019-05-10T15:02:25.556Z,1002
2019-05-10T15:07:29.045Z,1002
2019-05-10T15:12:34.114Z,1002
2019-05-10T15:17:39.359Z,1002
2019-05-10T15:22:44.095Z,1003
2019-05-10T15:28:01.748Z,1003
2019-05-10T15:33:04.172Z,1003
2019-05-10T15:38:09.087Z,1003
2019-05-10T15:43:19.350Z,1003
2019-05-10T15:48:19.072Z,1003
2019-05-10T15:53:27.857Z,1003
2019-05-10T15:58:42.881Z,1003
2019-05-10T16:03:44.187Z,1003
2019-05-10T16:08:49.119Z,1003
2019-05-10T16:14:01.691Z,1003
2019-05-10T16:18:59.002Z,1003
2019-05-10T16:29:03.806Z,1004
2019-05-10T16:34:04.267Z,1004
2019-05-10T16:39:09.228Z,1004
2019-05-10T16:44:21.359Z,1004
2019-05-10T16:49:29.281Z,1004
2019-05-10T16:54:34.214Z,1004
2019-05-10T16:59:39.282Z,1004
2019-05-10T17:04:44.249Z,1004
2019-05-10T17:09:56.282Z,1004
2019-05-10T17:15:03.610Z,1004
2019-05-10T17:20:16.225Z,1004
2019-05-10T17:25:14.209Z,1004
2019-05-10T17:30:29.475Z,1004
2019-05-10T17:33:49.751Z,1004
2019-05-10T17:35:24.346Z,1004
2019-05-10T17:40:29.192Z,1004
2019-05-10T17:45:42.700Z,1004
2019-05-10T17:50:49.222Z,1004
2019-05-10T17:56:03.190Z,1004
2019-05-10T18:00:59.260Z,1005
2019-05-10T18:06:04.240Z,1005
2019-05-10T18:11:09.362Z,1005
2019-05-10T18:16:29.203Z,1005
2019-05-10T18:21:44.253Z,1005
2019-05-10T18:26:54.271Z,1005
2019-05-10T18:32:04.229Z,1005
2019-05-10T18:37:09.197Z,1005
2019-05-10T18:43:20.668Z,1005
2019-05-10T18:47:19.236Z,1005
2019-05-10T18:52:24.291Z,1005
2019-05-10T18:57:34.248Z,1005
2019-05-10T19:02:44.242Z,1005
2019-05-10T19:08:55.434Z,1005
2019-05-10T19:14:11.879Z,1006
2019-05-10T19:17:59.173Z,1006
2019-05-10T19:23:06.011Z,1006
2019-05-10T19:28:14.459Z,1006
2019-05-10T19:34:33.522Z,1006
2019-05-10T19:38:29.323Z,1006
2019-05-10T19:43:34.204Z,1006
2019-05-10T19:48:39.232Z,1006
2019-05-10T19:58:39.452Z,1006
2019-05-10T20:03:44.575Z,1006
2019-05-10T20:08:49.537Z,1006
2019-05-10T20:13:59.599Z,1006
2019-05-10T20:19:09.866Z,1006
2019-05-10T20:24:14.582Z,1006
2019-05-10T20:29:19.525Z,1006
2019-05-10T20:39:19.624Z,1006
2019-05-10T20:44:24.671Z,1006
2019-05-10T20:49:29.715Z,1006
2019-05-10T20:54:39.603Z,1006
2019-05-10T20:59:49.632Z,1006
2019-05-10T21:04:54.645Z,1006
2019-05-10T21:09:59.621Z,1006
2019-05-10T21:15:04.759Z,1006
2019-05-10T21:20:09.671Z,1006
2019-05-10T21:25:19.573Z,1006
2019-05-10T21:30:29.706Z,1006
2019-05-10T21:35:34.803Z,1006
2019-05-10T21:40:39.639Z,1006
2019-05-10T21:45:44.718Z,1006
2019-05-10T21:50:49.618Z,1006
2019-05-10T21:55:59.566Z,1006
2019-05-10T22:01:09.562Z,1006
2019-05-10T22:06:14.528Z,1006
2019-05-10T22:11:19.532Z,1006
2019-05-10T22:21:19.796Z,1006
2019-05-10T22:26:24.812Z,1006
2019-05-10T22:31:29.791Z,1007
2019-05-10T22:36:39.840Z,1007
2019-05-10T22:41:53.543Z,1007
2019-05-10T22:46:54.860Z,1007
2019-05-10T22:51:59.805Z,1007
2019-05-10T23:02:00.067Z,1007
2019-05-10T23:07:05.066Z,1007
2019-05-10T23:12:10.011Z,1007
2019-05-10T23:17:19.972Z,1007
2019-05-10T23:22:30.035Z,1007
2019-05-10T23:27:35.242Z,1007
2019-05-10T23:32:40.039Z,1007
2019-05-10T23:42:40.434Z,1007
2019-05-10T23:47:45.241Z,1007
2019-05-10T23:52:50.245Z,1007
2019-05-10T23:58:00.202Z,1007
